This is the latest recevied weather packets stored in our database for station/object WX9WTF. If no packets are shown the sender has not sent any weather packets the latest 1 day(s).
| Time | Temp. | Humidity | Pressure | Rain* | Wind** | Luminosity | Snow |
|---|---|---|---|---|---|---|---|
| 1777995591 | 8.89° C | 90% | 1013 hPa | 1.27 mm | 2.68 m/s, 26° | 42 W/m² | - |
| 1777995289 | 8.89° C | 91% | 1012.9 hPa | 0 mm | 0.89 m/s, 46° | 61 W/m² | - |
| 1777994985 | 8.89° C | 90% | 1012.6 hPa | 0 mm | 0.89 m/s, 34° | 73 W/m² | - |
| 1777994683 | 8.89° C | 89% | 1012.3 hPa | 0 mm | 2.24 m/s, 57° | 91 W/m² | - |
| 1777994378 | 8.89° C | 89% | 1012.4 hPa | 0 mm | 2.68 m/s, 61° | 95 W/m² | - |
| 1777994073 | 8.89° C | 90% | 1012.3 hPa | 0.51 mm | 1.34 m/s, 64° | 211 W/m² | - |
| 1777993771 | 8.89° C | 91% | 1012.5 hPa | 0.51 mm | 1.79 m/s, 58° | 182 W/m² | - |
| 1777993468 | 8.89° C | 91% | 1012.7 hPa | 0 mm | 1.79 m/s, 12° | 127 W/m² | - |
| 1777993167 | 8.89° C | 91% | 1012.5 hPa | 0 mm | 2.24 m/s, 35° | 91 W/m² | - |
| 1777992866 | 8.89° C | 92% | 1012.4 hPa | 0 mm | 3.58 m/s, 53° | 124 W/m² | - |
| 1777992563 | 8.89° C | 92% | 1012.3 hPa | 0 mm | 3.58 m/s, 24° | 194 W/m² | - |
| 1777992261 | 8.89° C | 92% | 1012.5 hPa | 0.51 mm | 2.24 m/s, 54° | 214 W/m² | - |
| 1777991958 | 8.89° C | 92% | 1012.4 hPa | 0.51 mm | 2.24 m/s, 25° | 160 W/m² | - |
| 1777991656 | 8.33° C | 91% | 1012.7 hPa | 0 mm | 3.58 m/s, 45° | 177 W/m² | - |
| 1777991353 | 8.33° C | 91% | 1012.9 hPa | 0.51 mm | 0.89 m/s, 227° | 95 W/m² | - |
| 1777991050 | 8.33° C | 90% | 1012.8 hPa | 3.05 mm | 1.34 m/s, 60° | 69 W/m² | - |
| 1777990747 | 8.33° C | 90% | 1012.9 hPa | 3.56 mm | 1.34 m/s, 51° | 62 W/m² | - |
| 1777990444 | 8.33° C | 89% | 1012.4 hPa | 1.78 mm | 2.68 m/s, 42° | 16 W/m² | - |
| 1777990141 | 8.89° C | 89% | 1012.4 hPa | 1.27 mm | 2.68 m/s, 54° | 46 W/m² | - |
| 1777989838 | 8.89° C | 88% | 1012.7 hPa | 2.29 mm | 1.79 m/s, 57° | 25 W/m² | - |
| 1777989535 | 8.89° C | 88% | 1013.3 hPa | 3.56 mm | 0.89 m/s, 350° | 13 W/m² | - |
| 1777989231 | 8.89° C | 86% | 1012.9 hPa | 1.78 mm | 0.89 m/s, 3° | 18 W/m² | - |
| 1777988927 | 8.89° C | 85% | 1012.6 hPa | 0.51 mm | 1.34 m/s, 1° | 33 W/m² | - |
| 1777988624 | 8.89° C | 85% | 1012.3 hPa | 0.51 mm | 0.45 m/s, 78° | 41 W/m² | - |
| 1777988321 | 9.44° C | 84% | 1012.1 hPa | 2.29 mm | 3.13 m/s, 49° | 18 W/m² | - |
* Rain latest hour (hover to see other rain measurements)
** Current wind speed in m/s (hover to see current wind gust speed)